^^
Saratoga-Weather Station Historical Data
Daily Summary for July 11, 2020 Units:  English    Metric   Both
Daily Weekly Monthly Yearly Custom
  High: Low: Average:
Temperature: 73 °F 52 °F 64 °F
Dew Point: 53.8 °F 43.7 °F 48.6 °F
Humidity: 89% 37% 60%
Wind Speed: 8.1mph 0mph 2.1mph
Wind Gust: 11mph - -
Wind- - WSW
Pressure: 30.2 in 30.1 in -
Precipitation: 0 in    
Historical Graphs
 
 
Tabular Data for July 11, 2020
Time Temperature Dew Point Pressure Wind Wind Speed Wind Gust Humidity Rainfall Rate (Hourly) solar
00:03 63 °F 53.8 °F 30.1 in NW 2.9 mph 3 mph 72% 0 in 0 W/m2
00:08 62.8 °F 53.2 °F 30.1 in NNW 6 mph 6 mph 71% 0 in 0 W/m2
00:13 62.6 °F 53.1 °F 30.1 in NNE 0.9 mph 2 mph 71% 0 in 0 W/m2
00:18 62.4 °F 52.9 °F 30.1 in NW 4.9 mph 8 mph 71% 0 in 0 W/m2
00:23 62.4 °F 53.2 °F 30.1 in WNW 2 mph 3 mph 72% 0 in 0 W/m2
00:28 62.4 °F 52.9 °F 30.1 in NNW 2.9 mph 6 mph 71% 0 in 0 W/m2
00:38 62.2 °F 52.7 °F 30.1 in West 4 mph 6 mph 71% 0 in 0 W/m2
00:43 62.1 °F 52.5 °F 30.1 in WSW 4.9 mph 8 mph 71% 0 in 0 W/m2
00:48 62.1 °F 52.5 °F 30.1 in West 2 mph 4 mph 71% 0 in 0 W/m2
00:53 62.1 °F 52.5 °F 30.1 in NW 2 mph 8 mph 71% 0 in 0 W/m2
00:58 61.9 °F 52.3 °F 30.1 in West 2 mph 4 mph 71% 0 in 0 W/m2
01:03 61.9 °F 52.3 °F 30.1 in NW 4 mph 6 mph 71% 0 in 0 W/m2
01:08 61.9 °F 52.3 °F 30.1 in WNW 0.9 mph 4 mph 71% 0 in 0 W/m2
01:13 61.7 °F 52.5 °F 30.1 in WNW 4.9 mph 6 mph 72% 0 in 0 W/m2
01:19 61.5 °F 52.3 °F 30.1 in West 4 mph 6 mph 72% 0 in 0 W/m2
01:24 61.5 °F 52.3 °F 30.1 in NW 2 mph 7 mph 72% 0 in 0 W/m2
01:29 61.3 °F 52.7 °F 30.1 in West 2.9 mph 6 mph 73% 0 in 0 W/m2
01:34 61.2 °F 52.9 °F 30.1 in WNW 6 mph 6 mph 74% 0 in 0 W/m2
01:39 61 °F 53.1 °F 30.1 in WSW 4 mph 7 mph 75% 0 in 0 W/m2
01:44 60.6 °F 53.1 °F 30.1 in WNW 4 mph 5 mph 76% 0 in 0 W/m2
01:49 60.4 °F 52.9 °F 30.1 in WSW 4.9 mph 7 mph 76% 0 in 0 W/m2
01:54 60.4 °F 52.9 °F 30.1 in WNW 2 mph 5 mph 76% 0 in 0 W/m2
01:59 60.3 °F 52.7 °F 30.1 in NW 2 mph 4 mph 76% 0 in 0 W/m2
02:04 60.1 °F 52.9 °F 30.1 in WNW 4 mph 6 mph 77% 0 in 0 W/m2
02:09 59.7 °F 52.5 °F 30.1 in West 6.9 mph 7 mph 77% 0 in 0 W/m2
02:14 59.5 °F 52.3 °F 30.1 in WNW 4 mph 5 mph 77% 0 in 0 W/m2
02:19 59.4 °F 52.5 °F 30.1 in West 2 mph 4 mph 78% 0 in 0 W/m2
02:24 59.2 °F 52.3 °F 30.1 in WNW 2.9 mph 4 mph 78% 0 in 0 W/m2
02:29 58.6 °F 51.8 °F 30.1 in West 2 mph 4 mph 78% 0 in 0 W/m2
02:34 58.5 °F 51.6 °F 30.1 in West 4 mph 6 mph 78% 0 in 0 W/m2
02:39 58.3 °F 51.4 °F 30.1 in West 2.9 mph 4 mph 78% 0 in 0 W/m2
02:44 58.3 °F 51.4 °F 30.1 in WSW 4 mph 4 mph 78% 0 in 0 W/m2
02:49 57.9 °F 51.1 °F 30.1 in WSW 2.9 mph 3 mph 78% 0 in 0 W/m2
02:54 57.9 °F 51.4 °F 30.1 in WNW 0.9 mph 3 mph 79% 0 in 0 W/m2
02:59 57.7 °F 51.3 °F 30.1 in WSW 0.9 mph 5 mph 79% 0 in 0 W/m2
03:05 57.6 °F 51.4 °F 30.1 in West 2 mph 2 mph 80% 0 in 0 W/m2
03:10 57.4 °F 51.3 °F 30.1 in West 0.9 mph 5 mph 80% 0 in 0 W/m2
03:15 57 °F 50.9 °F 30.1 in West 2.9 mph 3 mph 80% 0 in 0 W/m2
03:20 56.8 °F 50.7 °F 30.1 in West 2.9 mph 4 mph 80% 0 in 0 W/m2
03:25 56.7 °F 50.9 °F 30.1 in West 2.9 mph 4 mph 81% 0 in 0 W/m2
03:30 56.5 °F 50.4 °F 30.1 in West 2 mph 3 mph 80% 0 in 0 W/m2
03:35 56.5 °F 50.4 °F 30.1 in West 2 mph 4 mph 80% 0 in 0 W/m2
03:40 56.5 °F 50.4 °F 30.1 in WNW 2.9 mph 4 mph 80% 0 in 0 W/m2
03:45 56.1 °F 50 °F 30.1 in West 2 mph 4 mph 80% 0 in 0 W/m2
03:50 56.1 °F 50 °F 30.1 in West 2 mph 2 mph 80% 0 in 0 W/m2
03:55 55.9 °F 49.8 °F 30.1 in West 2 mph 4 mph 80% 0 in 0 W/m2
04:00 55.8 °F 49.6 °F 30.1 in West 2 mph 3 mph 80% 0 in 0 W/m2
04:05 55.8 °F 49.6 °F 30.1 in West 2.9 mph 6 mph 80% 0 in 0 W/m2
04:10 55.9 °F 49.5 °F 30.1 in West 2 mph 3 mph 79% 0 in 0 W/m2
04:15 55.9 °F 49.5 °F 30.1 in West 0.9 mph 4 mph 79% 0 in 0 W/m2
04:20 55.8 °F 49.6 °F 30.1 in West 2 mph 4 mph 80% 0 in 0 W/m2
04:25 55.8 °F 49.6 °F 30.1 in Calm   6 mph 80% 0 in 0 W/m2
04:30 55.6 °F 49.5 °F 30.1 in West 2 mph 2 mph 80% 0 in 0 W/m2
04:35 55.2 °F 49.1 °F 30.1 in Calm   2 mph 80% 0 in 0 W/m2
04:40 55 °F 49.3 °F 30.1 in Calm     81% 0 in 0 W/m2
04:45 54.9 °F 49.1 °F 30.1 in Calm     81% 0 in 0 W/m2
04:50 54.5 °F 48.7 °F 30.1 in Calm     81% 0 in 0 W/m2
04:55 54.1 °F 48.7 °F 30.1 in Calm     82% 0 in 0 W/m2
05:00 54 °F 48.9 °F 30.1 in WSW 0.9 mph 2 mph 83% 0 in 0 W/m2
05:05 53.4 °F 48.4 °F 30.1 in WSW 0.9 mph 1 mph 83% 0 in 0 W/m2
05:10 53.4 °F 48.7 °F 30.1 in Calm   2 mph 84% 0 in 0 W/m2
05:15 53.1 °F 48.7 °F 30.1 in WSW 0.9 mph 1 mph 85% 0 in 0 W/m2
05:20 53.1 °F 48.7 °F 30.1 in Calm   2 mph 85% 0 in 0 W/m2
05:25 52.9 °F 48.7 °F 30.1 in WSW 0.9 mph 1 mph 86% 0 in 0 W/m2
05:30 52.5 °F 48.4 °F 30.1 in Calm     86% 0 in 0 W/m2
05:35 52.3 °F 48.6 °F 30.1 in Calm     87% 0 in 0 W/m2
05:40 52.2 °F 48.4 °F 30.1 in Calm   1 mph 87% 0 in 0 W/m2
05:45 52.2 °F 48.4 °F 30.1 in WSW 0.9 mph 2 mph 87% 0 in 5 W/m2
05:50 52.2 °F 48.7 °F 30.1 in Calm   1 mph 88% 0 in 5 W/m2
05:55 52 °F 48.6 °F 30.1 in Calm     88% 0 in 9 W/m2
06:00 52 °F 48.6 °F 30.1 in Calm     88% 0 in 11 W/m2
06:05 52 °F 48.9 °F 30.1 in Calm   1 mph 89% 0 in 12 W/m2
06:10 52 °F 48.9 °F 30.1 in Calm     89% 0 in 14 W/m2
06:15 52 °F 48.9 °F 30.1 in Calm   1 mph 89% 0 in 16 W/m2
06:20 52 °F 48.9 °F 30.1 in Calm     89% 0 in 18 W/m2
06:25 52 °F 48.9 °F 30.1 in WSW 0.9 mph 1 mph 89% 0 in 19 W/m2
06:30 52.3 °F 49.3 °F 30.1 in Calm     89% 0 in 21 W/m2
06:35 52.7 °F 49.5 °F 30.1 in WSW 0.9 mph 2 mph 89% 0 in 23 W/m2
06:40 53.1 °F 49.8 °F 30.1 in WSW 0.9 mph 2 mph 89% 0 in 25 W/m2
06:45 53.4 °F 50 °F 30.1 in Calm   1 mph 88% 0 in 25 W/m2
06:50 53.8 °F 50.4 °F 30.2 in WSW 0.9 mph 2 mph 88% 0 in 26 W/m2
06:55 54.1 °F 50.4 °F 30.2 in Calm   2 mph 87% 0 in 28 W/m2
07:00 54.3 °F 50.2 °F 30.2 in West 2 mph 3 mph 86% 0 in 28 W/m2
07:05 54.9 °F 50.4 °F 30.2 in Calm   2 mph 85% 0 in 30 W/m2
07:10 55 °F 50.5 °F 30.2 in West 2 mph 3 mph 85% 0 in 32 W/m2
07:15 55.4 °F 50.7 °F 30.2 in Calm     84% 0 in 32 W/m2
07:20 55.6 °F 50.5 °F 30.2 in NW 2 mph 2 mph 83% 0 in 33 W/m2
07:25 55.8 °F 50.7 °F 30.2 in Calm     83% 0 in 33 W/m2
07:30 55.9 °F 50.9 °F 30.2 in NW 0.9 mph 2 mph 83% 0 in 35 W/m2
07:35 56.1 °F 50.7 °F 30.2 in Calm   1 mph 82% 0 in 35 W/m2
07:40 56.3 °F 50.9 °F 30.2 in North 0.9 mph 2 mph 82% 0 in 37 W/m2
07:45 56.5 °F 50.7 °F 30.2 in ESE 2 mph 3 mph 81% 0 in 37 W/m2
07:50 56.7 °F 50.9 °F 30.2 in Calm   1 mph 81% 0 in 53 W/m2
07:55 57 °F 50.9 °F 30.2 in Calm   2 mph 80% 0 in 234 W/m2
08:00 57.4 °F 50.9 °F 30.2 in NW 4 mph 5 mph 79% 0 in 250 W/m2
08:05 57.7 °F 50.9 °F 30.2 in ESE 0.9 mph 1 mph 78% 0 in 264 W/m2
08:10 58.5 °F 51.6 °F 30.2 in East 5 mph 5 mph 78% 0 in 278 W/m2
08:15 59 °F 51.8 °F 30.2 in Calm   2 mph 77% 0 in 290 W/m2
08:20 59.5 °F 52 °F 30.2 in SSW 0.9 mph 5 mph 76% 0 in 279 W/m2
08:25 59.9 °F 51.6 °F 30.2 in Calm   4 mph 74% 0 in 169 W/m2
08:30 60.3 °F 51.6 °F 30.2 in South 0.9 mph 4 mph 73% 0 in 74 W/m2
08:35 60.3 °F 51.6 °F 30.2 in NW 0.9 mph 5 mph 73% 0 in 51 W/m2
08:40 60.8 °F 52.2 °F 30.2 in ENE 4 mph 4 mph 73% 0 in 51 W/m2
08:45 61.2 °F 52 °F 30.2 in Calm   3 mph 72% 0 in 51 W/m2
08:50 61.3 °F 51.8 °F 30.2 in NNW 0.9 mph 3 mph 71% 0 in 49 W/m2
08:55 61.5 °F 52 °F 30.2 in East 2.9 mph 3 mph 71% 0 in 49 W/m2
09:00 61.9 °F 52 °F 30.2 in ENE 0.9 mph 5 mph 70% 0 in 47 W/m2
09:05 62.2 °F 52 °F 30.2 in East 2 mph 6 mph 69% 0 in 47 W/m2
09:10 62.4 °F 52.5 °F 30.2 in ESE 0.9 mph 2 mph 70% 0 in 47 W/m2
09:15 62.8 °F 52.5 °F 30.2 in Calm   6 mph 69% 0 in 141 W/m2
09:20 63 °F 52.2 °F 30.2 in ESE 2 mph 4 mph 68% 0 in 357 W/m2
09:25 63.1 °F 52.3 °F 30.2 in Calm   4 mph 68% 0 in 441 W/m2
09:30 63.3 °F 52.5 °F 30.2 in NW 0.9 mph 5 mph 68% 0 in 499 W/m2
09:35 63.7 °F 52.5 °F 30.2 in NNW 2 mph 3 mph 67% 0 in 515 W/m2
09:40 64 °F 52.5 °F 30.2 in East 0.9 mph 5 mph 66% 0 in 534 W/m2
09:45 64 °F 52 °F 30.2 in Calm   3 mph 65% 0 in 506 W/m2
09:50 64.2 °F 52.2 °F 30.2 in NE 2 mph 5 mph 65% 0 in 585 W/m2
09:55 64.6 °F 52.5 °F 30.2 in NNW 2.9 mph 4 mph 65% 0 in 636 W/m2
10:00 64.8 °F 51.8 °F 30.2 in West 2.9 mph 4 mph 63% 0 in 635 W/m2
10:05 64.9 °F 52 °F 30.2 in West 0.9 mph 3 mph 63% 0 in 675 W/m2
10:10 64.9 °F 52 °F 30.2 in Calm   2 mph 63% 0 in 636 W/m2
10:15 65.1 °F 51.8 °F 30.2 in South 0.9 mph 4 mph 62% 0 in 197 W/m2
10:20 65.8 °F 51.6 °F 30.2 in Calm   3 mph 60% 0 in 689 W/m2
10:25 65.5 °F 50.7 °F 30.2 in WSW 2 mph 6 mph 59% 0 in 740 W/m2
10:30 65.5 °F 50.7 °F 30.2 in NW 2 mph 9 mph 59% 0 in 675 W/m2
10:35 65.5 °F 50.7 °F 30.2 in North 0.9 mph 1 mph 59% 0 in 195 W/m2
10:40 65.5 °F 49.3 °F 30.2 in NNW 2.9 mph 6 mph 56% 0 in 132 W/m2
10:45 65.1 °F 49.5 °F 30.2 in ESE 0.9 mph 3 mph 57% 0 in 786 W/m2
10:50 65.3 °F 50.2 °F 30.2 in WNW 0.9 mph 5 mph 58% 0 in 786 W/m2
10:55 65.7 °F 50.5 °F 30.2 in Calm   3 mph 58% 0 in 163 W/m2
11:00 65.3 °F 48.7 °F 30.2 in NNW 4 mph 4 mph 55% 0 in 118 W/m2
11:05 65.1 °F 49.1 °F 30.2 in NE 2.9 mph 3 mph 56% 0 in 805 W/m2
11:10 65.7 °F 48.6 °F 30.2 in ESE 0.9 mph 2 mph 54% 0 in 840 W/m2
11:15 66.2 °F 49.1 °F 30.2 in NE 4 mph 5 mph 54% 0 in 905 W/m2
11:20 66.7 °F 48 °F 30.2 in WNW 4 mph 5 mph 51% 0 in 220 W/m2
11:26 66.6 °F 48.4 °F 30.2 in North 0.9 mph 2 mph 52% 0 in 288 W/m2
11:31 66.9 °F 48.7 °F 30.2 in NNW 2.9 mph 6 mph 52% 0 in 396 W/m2
11:36 66.9 °F 48.2 °F 30.2 in NE 2.9 mph 3 mph 51% 0 in 279 W/m2
11:41 66.9 °F 48.7 °F 30.2 in West 2.9 mph 6 mph 52% 0 in 939 W/m2
11:46 67.3 °F 49.6 °F 30.2 in NW 2 mph 6 mph 53% 0 in 933 W/m2
11:51 67.6 °F 47.3 °F 30.2 in NW 2.9 mph 5 mph 48% 0 in 255 W/m2
11:56 67.3 °F 47.5 °F 30.2 in West 0.9 mph 4 mph 49% 0 in 285 W/m2
12:01 67.5 °F 46.6 °F 30.2 in West 2.9 mph 8 mph 47% 0 in 251 W/m2
12:06 66.9 °F 47.1 °F 30.2 in NNW 2 mph 4 mph 49% 0 in 206 W/m2
12:11 66.6 °F 46.8 °F 30.2 in WSW 2 mph 4 mph 49% 0 in 200 W/m2
12:16 66.6 °F 46.8 °F 30.2 in NNE 4 mph 7 mph 49% 0 in 951 W/m2
12:21 67.6 °F 47.8 °F 30.2 in West 2 mph 6 mph 49% 0 in 986 W/m2
12:26 68 °F 47.7 °F 30.2 in WSW 4 mph 7 mph 48% 0 in 942 W/m2
12:31 68 °F 46.4 °F 30.2 in NW 2.9 mph 5 mph 46% 0 in 185 W/m2
12:36 67.3 °F 46.4 °F 30.2 in NW 2 mph 4 mph 47% 0 in 195 W/m2
12:41 66.7 °F 45.3 °F 30.2 in West 2 mph 3 mph 46% 0 in 311 W/m2
12:46 67.3 °F 46.4 °F 30.2 in West 2 mph 3 mph 47% 0 in 1020 W/m2
12:51 68 °F 46.9 °F 30.2 in WNW 2.9 mph 7 mph 47% 0 in 1007 W/m2
12:56 68.7 °F 47.1 °F 30.2 in ENE 2 mph 8 mph 46% 0 in 1046 W/m2
13:02 69.4 °F 46 °F 30.2 in WNW 2 mph 5 mph 43% 0 in 1044 W/m2
13:12 69.1 °F 45.7 °F 30.2 in WSW 4 mph 6 mph 43% 0 in 281 W/m2
13:17 68.9 °F 46 °F 30.2 in West 6 mph 11 mph 44% 0 in 1129 W/m2
13:22 69.4 °F 47.8 °F 30.2 in WSW 4.9 mph 8 mph 46% 0 in 1121 W/m2
13:27 70 °F 46.4 °F 30.2 in NNW 2.9 mph 10 mph 43% 0 in 1092 W/m2
13:32 70.2 °F 47.8 °F 30.2 in West 2.9 mph 8 mph 45% 0 in 1034 W/m2
13:37 71.1 °F 48 °F 30.2 in NE 0.9 mph 4 mph 44% 0 in 1037 W/m2
13:42 71.1 °F 46.8 °F 30.2 in WNW 6 mph 6 mph 42% 0 in 1079 W/m2
13:47 70.3 °F 46.2 °F 30.2 in South 0.9 mph 3 mph 42% 0 in 355 W/m2
13:52 69.8 °F 46.2 °F 30.2 in WSW 2.9 mph 7 mph 43% 0 in 309 W/m2
13:57 69.6 °F 46.2 °F 30.2 in NW 4 mph 5 mph 43% 0 in 408 W/m2
14:02 69.8 °F 46.9 °F 30.2 in West 4 mph 7 mph 44% 0 in 1139 W/m2
14:07 69.8 °F 46.9 °F 30.2 in NNW 0.9 mph 4 mph 44% 0 in 1072 W/m2
14:12 70 °F 47.1 °F 30.2 in SE 4.9 mph 5 mph 44% 0 in 1023 W/m2
14:17 70.9 °F 47.3 °F 30.2 in East 2 mph 4 mph 43% 0 in 1039 W/m2
14:22 71.4 °F 46.6 °F 30.2 in WNW 2 mph 4 mph 41% 0 in 1139 W/m2
14:27 71.4 °F 45.9 °F 30.2 in WNW 2.9 mph 6 mph 40% 0 in 241 W/m2
14:32 70.3 °F 46.8 °F 30.2 in NW 4 mph 4 mph 43% 0 in 200 W/m2
14:37 69.4 °F 46.6 °F 30.2 in North 2.9 mph 7 mph 44% 0 in 185 W/m2
14:42 69.3 °F 46.4 °F 30.2 in West 2 mph 3 mph 44% 0 in 229 W/m2
14:47 69.1 °F 45.7 °F 30.2 in NW 0.9 mph 3 mph 43% 0 in 311 W/m2
14:53 69.3 °F 46.9 °F 30.2 in NW 2.9 mph 6 mph 45% 0 in 1093 W/m2
14:58 70.2 °F 46.6 °F 30.2 in NNW 2 mph 7 mph 43% 0 in 1090 W/m2
15:03 71.1 °F 48 °F 30.2 in NNE 2 mph 2 mph 44% 0 in 1111 W/m2
15:08 71.6 °F 46.6 °F 30.2 in NNW 4.9 mph 9 mph 41% 0 in 264 W/m2
15:13 70.7 °F 46.4 °F 30.2 in NNW 2 mph 6 mph 42% 0 in 262 W/m2
15:18 70.2 °F 46.6 °F 30.2 in WSW 8.1 mph 9 mph 43% 0 in 288 W/m2
15:23 69.6 °F 46.8 °F 30.2 in SW 0.9 mph 6 mph 44% 0 in 397 W/m2
15:28 70.2 °F 47.3 °F 30.2 in WNW 2 mph 4 mph 44% 0 in 905 W/m2
15:33 71.1 °F 47.5 °F 30.2 in WNW 2.9 mph 6 mph 43% 0 in 963 W/m2
15:38 71.4 °F 46.6 °F 30.2 in West 4 mph 8 mph 41% 0 in 1004 W/m2
15:43 71.2 °F 46.4 °F 30.2 in NNW 2 mph 3 mph 41% 0 in 243 W/m2
15:48 70.9 °F 47.3 °F 30.2 in NW 4 mph 4 mph 43% 0 in 278 W/m2
15:53 70.5 °F 46.9 °F 30.2 in WSW 2 mph 7 mph 43% 0 in 369 W/m2
15:58 70.3 °F 46.8 °F 30.2 in WSW 6.9 mph 7 mph 43% 0 in 376 W/m2
16:03 70 °F 46.4 °F 30.2 in West 6 mph 8 mph 43% 0 in 424 W/m2
16:08 70 °F 46.4 °F 30.2 in WNW 0.9 mph 8 mph 43% 0 in 352 W/m2
16:13 70.3 °F 46.8 °F 30.2 in WNW 8.1 mph 9 mph 43% 0 in 352 W/m2
16:19 71.1 °F 46.8 °F 30.2 in WSW 0.9 mph 4 mph 42% 0 in 884 W/m2
16:24 71.6 °F 46 °F 30.2 in NW 0.9 mph 4 mph 40% 0 in 684 W/m2
16:29 72.5 °F 46.8 °F 30.2 in NW 2 mph 3 mph 40% 0 in 891 W/m2
16:34 72.7 °F 46.2 °F 30.2 in East 4 mph 6 mph 39% 0 in 232 W/m2
16:39 71.6 °F 46.6 °F 30.2 in NW 4 mph 10 mph 41% 0 in 197 W/m2
16:44 71.1 °F 47.5 °F 30.2 in WNW 2 mph 3 mph 43% 0 in 239 W/m2
16:49 70.9 °F 46.6 °F 30.2 in NNE 2 mph 10 mph 42% 0 in 336 W/m2
16:54 71.4 °F 47.1 °F 30.2 in NE 2 mph 4 mph 42% 0 in 902 W/m2
16:59 72.1 °F 47.1 °F 30.2 in NNW 4 mph 9 mph 41% 0 in 260 W/m2
17:04 72 °F 46.9 °F 30.2 in West 2 mph 6 mph 41% 0 in 225 W/m2
17:09 71.2 °F 45.7 °F 30.2 in NNW 2 mph 4 mph 40% 0 in 218 W/m2
17:14 71.2 °F 45 °F 30.2 in North 2.9 mph 10 mph 39% 0 in 290 W/m2
17:19 71.4 °F 44.4 °F 30.2 in WNW 4 mph 8 mph 38% 0 in 283 W/m2
17:24 71.4 °F 44.4 °F 30.2 in West 2 mph 4 mph 38% 0 in 197 W/m2
17:29 71.2 °F 44.2 °F 30.2 in ESE 0.9 mph 9 mph 38% 0 in 176 W/m2
17:34 71.4 °F 45.1 °F 30.2 in ENE 0.9 mph 4 mph 39% 0 in 536 W/m2
17:39 71.4 °F 43.7 °F 30.2 in WNW 2 mph 9 mph 37% 0 in 146 W/m2
17:44 71.4 °F 45.1 °F 30.2 in WNW 2 mph 3 mph 39% 0 in 654 W/m2
17:49 71.4 °F 44.4 °F 30.2 in WNW 2 mph 4 mph 38% 0 in 121 W/m2
17:54 71.2 °F 45.7 °F 30.2 in NW 2 mph 3 mph 40% 0 in 134 W/m2
17:59 70.9 °F 45.3 °F 30.2 in WNW 4 mph 4 mph 40% 0 in 79 W/m2
18:04 70.3 °F 46.2 °F 30.2 in NNW 4.9 mph 5 mph 42% 0 in 90 W/m2
18:09 70.2 °F 45.3 °F 30.2 in WNW 4 mph 8 mph 41% 0 in 113 W/m2
18:14 70.2 °F 45.3 °F 30.2 in WNW 2 mph 4 mph 41% 0 in 116 W/m2
18:19 70.2 °F 45.3 °F 30.2 in NW 2 mph 3 mph 41% 0 in 98 W/m2
18:24 70 °F 45.9 °F 30.2 in West 2.9 mph 3 mph 42% 0 in 114 W/m2
18:29 70.2 °F 46 °F 30.2 in NNW 2 mph 5 mph 42% 0 in 114 W/m2
18:34 70.9 °F 45.3 °F 30.2 in WSW 2 mph 3 mph 40% 0 in 408 W/m2
18:39 71.6 °F 45.3 °F 30.2 in West 0.9 mph 5 mph 39% 0 in 374 W/m2
18:44 72.1 °F 45.9 °F 30.2 in East 2 mph 3 mph 39% 0 in 338 W/m2
18:49 72.5 °F 46.2 °F 30.2 in West 6 mph 6 mph 39% 0 in 325 W/m2
18:54 72.9 °F 45.7 °F 30.2 in NNW 2 mph 4 mph 38% 0 in 316 W/m2
18:59 73 °F 45.9 °F 30.2 in WNW 2.9 mph 5 mph 38% 0 in 290 W/m2
19:04 72.5 °F 44.8 °F 30.2 in West 2.9 mph 4 mph 37% 0 in 190 W/m2
19:09 71.6 °F 43.9 °F 30.2 in West 6 mph 7 mph 37% 0 in 63 W/m2
19:14 70.9 °F 44.1 °F 30.2 in WNW 2.9 mph 3 mph 38% 0 in 214 W/m2
19:19 70.5 °F 43.7 °F 30.2 in WNW 2.9 mph 4 mph 38% 0 in 46 W/m2
19:24 70.7 °F 43.9 °F 30.2 in NNW 2 mph 2 mph 38% 0 in 299 W/m2
19:29 71.4 °F 44.4 °F 30.2 in North 2.9 mph 4 mph 38% 0 in 294 W/m2
19:34 72.1 °F 45.1 °F 30.2 in West 0.9 mph 2 mph 38% 0 in 276 W/m2
19:39 72.7 °F 45 °F 30.2 in Calm   3 mph 37% 0 in 260 W/m2
19:44 73 °F 45.9 °F 30.2 in West 2 mph 3 mph 38% 0 in 236 W/m2
19:49 73 °F 45.1 °F 30.2 in North 0.9 mph 5 mph 37% 0 in 192 W/m2
19:54 72.9 °F 45.1 °F 30.2 in WSW 4 mph 6 mph 37% 0 in 167 W/m2
19:59 72.1 °F 45.1 °F 30.2 in WNW 2.9 mph 5 mph 38% 0 in 160 W/m2
20:04 71.6 °F 45.3 °F 30.2 in WNW 2.9 mph 5 mph 39% 0 in 158 W/m2
20:09 71.2 °F 45.7 °F 30.2 in West 0.9 mph 7 mph 40% 0 in 155 W/m2
20:14 71.2 °F 45 °F 30.2 in NW 0.9 mph 4 mph 39% 0 in 139 W/m2
20:19 71.2 °F 45 °F 30.2 in NW 2 mph 7 mph 39% 0 in 128 W/m2
20:24 71.2 °F 45.7 °F 30.2 in WNW 2 mph 4 mph 40% 0 in 116 W/m2
20:29 71.2 °F 45.7 °F 30.2 in NNW 4.9 mph 6 mph 40% 0 in 104 W/m2
20:34 71.1 °F 46.2 °F 30.2 in North 2 mph 6 mph 41% 0 in 91 W/m2
20:39 70.9 °F 46 °F 30.2 in NNE 4 mph 5 mph 41% 0 in 77 W/m2
20:44 70.5 °F 46.4 °F 30.2 in NW 0.9 mph 6 mph 42% 0 in 63 W/m2
20:49 70.3 °F 46.2 °F 30.2 in Calm     42% 0 in 56 W/m2
20:54 70.2 °F 46.6 °F 30.2 in NNW 0.9 mph 2 mph 43% 0 in 49 W/m2
20:59 69.8 °F 45.7 °F 30.2 in NNW 2.9 mph 3 mph 42% 0 in 42 W/m2
21:04 69.6 °F 46.2 °F 30.2 in NNW 4 mph 4 mph 43% 0 in 35 W/m2
21:09 69.4 °F 46.6 °F 30.2 in Calm   2 mph 44% 0 in 28 W/m2
21:14 69.3 °F 46.4 °F 30.2 in NW 0.9 mph 2 mph 44% 0 in 23 W/m2
21:19 68.5 °F 46.4 °F 30.2 in WNW 0.9 mph 2 mph 45% 0 in 14 W/m2
21:29 67.3 °F 46.4 °F 30.2 in WSW 0.9 mph 2 mph 47% 0 in 9 W/m2
21:34 66.6 °F 46.2 °F 30.2 in West 0.9 mph 2 mph 48% 0 in 7 W/m2
21:39 66 °F 46.8 °F 30.2 in Calm   1 mph 50% 0 in 5 W/m2
21:44 65.5 °F 46.9 °F 30.2 in Calm   1 mph 51% 0 in 0 W/m2
21:49 64.9 °F 46.9 °F 30.2 in Calm     52% 0 in 0 W/m2
21:54 64.4 °F 46.9 °F 30.2 in Calm   1 mph 53% 0 in 0 W/m2
21:59 64 °F 46.6 °F 30.2 in Calm     53% 0 in 0 W/m2
22:04 63.5 °F 46 °F 30.2 in WSW 2 mph 2 mph 53% 0 in 0 W/m2
22:09 63.1 °F 46.2 °F 30.2 in Calm   2 mph 54% 0 in 0 W/m2
22:15 63 °F 46 °F 30.2 in WSW 0.9 mph 3 mph 54% 0 in 0 W/m2
22:20 62.6 °F 46.2 °F 30.2 in Calm     55% 0 in 0 W/m2
22:25 62.4 °F 46 °F 30.2 in Calm   3 mph 55% 0 in 0 W/m2
22:30 62.2 °F 45.9 °F 30.2 in NW 0.9 mph 2 mph 55% 0 in 0 W/m2
22:35 62.1 °F 46.2 °F 30.2 in NNE 0.9 mph 1 mph 56% 0 in 0 W/m2
22:40 61.9 °F 46.4 °F 30.2 in Calm   1 mph 57% 0 in 0 W/m2
22:45 61.7 °F 46.4 °F 30.2 in West 0.9 mph 3 mph 57% 0 in 0 W/m2
22:50 61.5 °F 46.2 °F 30.2 in Calm   1 mph 57% 0 in 0 W/m2
22:55 61.5 °F 47.1 °F 30.2 in West 2 mph 3 mph 59% 0 in 0 W/m2
23:00 61.9 °F 47.5 °F 30.2 in WNW 0.9 mph 2 mph 59% 0 in 0 W/m2
23:05 62.1 °F 48 °F 30.2 in WNW 2 mph 3 mph 60% 0 in 0 W/m2
23:10 62.1 °F 48 °F 30.2 in WNW 0.9 mph 2 mph 60% 0 in 0 W/m2
23:15 61.9 °F 48.2 °F 30.2 in WNW 0.9 mph 2 mph 61% 0 in 0 W/m2
23:20 61.5 °F 48.4 °F 30.2 in NNW 0.9 mph 5 mph 62% 0 in 0 W/m2
23:25 61.5 °F 48.4 °F 30.2 in WNW 2 mph 4 mph 62% 0 in 0 W/m2
23:30 61.9 °F 48.2 °F 30.2 in NNW 2 mph 3 mph 61% 0 in 0 W/m2
23:35 62.1 °F 48.4 °F 30.2 in WNW 2 mph 4 mph 61% 0 in 0 W/m2
23:40 62.2 °F 48.6 °F 30.2 in West 0.9 mph 4 mph 61% 0 in 0 W/m2
23:45 62.2 °F 48.6 °F 30.2 in NW 2 mph 4 mph 61% 0 in 0 W/m2
23:50 62.1 °F 48.9 °F 30.2 in NW 4 mph 5 mph 62% 0 in 0 W/m2
23:55 62.1 °F 48.9 °F 30.2 in West 2 mph 4 mph 62% 0 in 0 W/m2
Juneau County Weather
Compliments of Weather Underground - 4 mb